sensor_id;sensor_type;location;lat;lon;timestamp;P1;durP1;ratioP1;P2;durP2;ratioP2
4700;SDS011;8724;51.272;6.554;2022-12-20T00:01:29;1.40;;;1.30;;
4700;SDS011;8724;51.272;6.554;2022-12-20T00:04:00;1.37;;;1.27;;
4700;SDS011;8724;51.272;6.554;2022-12-20T00:06:32;1.50;;;1.40;;
4700;SDS011;8724;51.272;6.554;2022-12-20T00:09:01;1.97;;;1.60;;
4700;SDS011;8724;51.272;6.554;2022-12-20T00:11:30;1.60;;;1.37;;
4700;SDS011;8724;51.272;6.554;2022-12-20T00:13:59;1.40;;;1.30;;
4700;SDS011;8724;51.272;6.554;2022-12-20T00:16:28;1.60;;;1.50;;
4700;SDS011;8724;51.272;6.554;2022-12-20T00:18:57;1.50;;;1.40;;
4700;SDS011;8724;51.272;6.554;2022-12-20T00:21:29;1.40;;;1.30;;
4700;SDS011;8724;51.272;6.554;2022-12-20T00:23:59;1.67;;;1.57;;
4700;SDS011;8724;51.272;6.554;2022-12-20T00:26:28;2.57;;;1.60;;
4700;SDS011;8724;51.272;6.554;2022-12-20T00:28:57;1.53;;;1.43;;
4700;SDS011;8724;51.272;6.554;2022-12-20T00:31:27;2.03;;;1.70;;
4700;SDS011;8724;51.272;6.554;2022-12-20T00:33:57;1.70;;;1.60;;
4700;SDS011;8724;51.272;6.554;2022-12-20T00:36:28;1.50;;;1.40;;
4700;SDS011;8724;51.272;6.554;2022-12-20T00:38:58;1.87;;;1.60;;
4700;SDS011;8724;51.272;6.554;2022-12-20T00:41:28;2.90;;;1.57;;
4700;SDS011;8724;51.272;6.554;2022-12-20T00:43:58;1.10;;;1.10;;
4700;SDS011;8724;51.272;6.554;2022-12-20T00:46:26;2.53;;;1.70;;
4700;SDS011;8724;51.272;6.554;2022-12-20T00:48:55;1.20;;;1.17;;
4700;SDS011;8724;51.272;6.554;2022-12-20T00:51:24;1.60;;;1.50;;
4700;SDS011;8724;51.272;6.554;2022-12-20T00:53:55;1.37;;;1.27;;
4700;SDS011;8724;51.272;6.554;2022-12-20T00:56:24;1.47;;;1.37;;
4700;SDS011;8724;51.272;6.554;2022-12-20T00:58:54;1.70;;;1.60;;
4700;SDS011;8724;51.272;6.554;2022-12-20T01:01:26;1.80;;;1.40;;
4700;SDS011;8724;51.272;6.554;2022-12-20T01:03:57;2.10;;;1.40;;
4700;SDS011;8724;51.272;6.554;2022-12-20T01:06:26;1.53;;;1.40;;
4700;SDS011;8724;51.272;6.554;2022-12-20T01:08:56;2.20;;;1.20;;
4700;SDS011;8724;51.272;6.554;2022-12-20T01:11:25;2.70;;;1.53;;
4700;SDS011;8724;51.272;6.554;2022-12-20T01:13:55;2.60;;;1.40;;
4700;SDS011;8724;51.272;6.554;2022-12-20T01:16:27;1.40;;;1.27;;
4700;SDS011;8724;51.272;6.554;2022-12-20T01:18:56;1.70;;;1.50;;
4700;SDS011;8724;51.272;6.554;2022-12-20T01:21:25;1.67;;;1.33;;
4700;SDS011;8724;51.272;6.554;2022-12-20T01:23:55;1.77;;;1.50;;
4700;SDS011;8724;51.272;6.554;2022-12-20T01:26:24;2.17;;;1.50;;
4700;SDS011;8724;51.272;6.554;2022-12-20T01:28:55;1.80;;;1.70;;
4700;SDS011;8724;51.272;6.554;2022-12-20T01:31:25;2.20;;;1.50;;
4700;SDS011;8724;51.272;6.554;2022-12-20T01:33:54;1.10;;;1.00;;
4700;SDS011;8724;51.272;6.554;2022-12-20T01:36:24;1.47;;;1.37;;
4700;SDS011;8724;51.272;6.554;2022-12-20T01:38:56;1.23;;;1.13;;
4700;SDS011;8724;51.272;6.554;2022-12-20T01:41:25;2.93;;;1.67;;
4700;SDS011;8724;51.272;6.554;2022-12-20T01:43:56;1.50;;;1.20;;
4700;SDS011;8724;51.272;6.554;2022-12-20T01:46:29;2.23;;;1.30;;
4700;SDS011;8724;51.272;6.554;2022-12-20T01:48:59;2.23;;;1.70;;
4700;SDS011;8724;51.272;6.554;2022-12-20T01:51:30;2.80;;;1.57;;
4700;SDS011;8724;51.272;6.554;2022-12-20T01:54:05;1.83;;;1.50;;
4700;SDS011;8724;51.272;6.554;2022-12-20T01:56:36;1.47;;;1.37;;
4700;SDS011;8724;51.272;6.554;2022-12-20T01:59:06;2.73;;;1.57;;
4700;SDS011;8724;51.272;6.554;2022-12-20T02:01:35;1.23;;;1.17;;
4700;SDS011;8724;51.272;6.554;2022-12-20T02:04:03;1.30;;;1.20;;
4700;SDS011;8724;51.272;6.554;2022-12-20T02:06:32;1.50;;;1.40;;
4700;SDS011;8724;51.272;6.554;2022-12-20T02:09:00;3.13;;;1.20;;
4700;SDS011;8724;51.272;6.554;2022-12-20T02:11:40;2.37;;;2.17;;
4700;SDS011;8724;51.272;6.554;2022-12-20T02:14:30;1.30;;;1.20;;
4700;SDS011;8724;51.272;6.554;2022-12-20T02:17:07;4.07;;;1.77;;
4700;SDS011;8724;51.272;6.554;2022-12-20T02:19:53;2.10;;;1.70;;
4700;SDS011;8724;51.272;6.554;2022-12-20T02:23:02;1.90;;;1.80;;
4700;SDS011;8724;51.272;6.554;2022-12-20T02:25:46;1.50;;;1.40;;
4700;SDS011;8724;51.272;6.554;2022-12-20T02:28:33;1.73;;;1.63;;
4700;SDS011;8724;51.272;6.554;2022-12-20T02:31:20;2.77;;;2.07;;
4700;SDS011;8724;51.272;6.554;2022-12-20T02:33:54;2.03;;;1.60;;
4700;SDS011;8724;51.272;6.554;2022-12-20T02:36:24;1.77;;;1.40;;
4700;SDS011;8724;51.272;6.554;2022-12-20T02:38:52;1.60;;;1.40;;
4700;SDS011;8724;51.272;6.554;2022-12-20T02:41:22;2.73;;;1.70;;
4700;SDS011;8724;51.272;6.554;2022-12-20T02:43:54;1.77;;;1.67;;
4700;SDS011;8724;51.272;6.554;2022-12-20T02:46:44;1.27;;;1.10;;
4700;SDS011;8724;51.272;6.554;2022-12-20T02:49:16;2.80;;;1.60;;
4700;SDS011;8724;51.272;6.554;2022-12-20T02:51:47;4.10;;;1.40;;
4700;SDS011;8724;51.272;6.554;2022-12-20T02:54:18;2.67;;;1.57;;
4700;SDS011;8724;51.272;6.554;2022-12-20T02:56:49;1.90;;;1.50;;
4700;SDS011;8724;51.272;6.554;2022-12-20T02:59:23;1.93;;;1.60;;
4700;SDS011;8724;51.272;6.554;2022-12-20T03:01:58;3.50;;;1.63;;
4700;SDS011;8724;51.272;6.554;2022-12-20T03:04:27;2.27;;;1.90;;
4700;SDS011;8724;51.272;6.554;2022-12-20T03:06:58;3.60;;;1.80;;
4700;SDS011;8724;51.272;6.554;2022-12-20T03:09:28;1.90;;;1.70;;
4700;SDS011;8724;51.272;6.554;2022-12-20T03:11:58;1.83;;;1.47;;
4700;SDS011;8724;51.272;6.554;2022-12-20T03:14:28;1.90;;;1.70;;
4700;SDS011;8724;51.272;6.554;2022-12-20T03:17:00;2.00;;;1.40;;
4700;SDS011;8724;51.272;6.554;2022-12-20T03:19:29;2.70;;;1.80;;
4700;SDS011;8724;51.272;6.554;2022-12-20T03:21:57;1.60;;;1.50;;
4700;SDS011;8724;51.272;6.554;2022-12-20T03:24:26;1.67;;;1.57;;
4700;SDS011;8724;51.272;6.554;2022-12-20T03:26:54;2.00;;;1.80;;
4700;SDS011;8724;51.272;6.554;2022-12-20T03:29:23;1.70;;;1.60;;
4700;SDS011;8724;51.272;6.554;2022-12-20T03:31:51;3.00;;;1.73;;
4700;SDS011;8724;51.272;6.554;2022-12-20T03:34:21;2.10;;;1.40;;
4700;SDS011;8724;51.272;6.554;2022-12-20T03:36:50;1.60;;;1.50;;
4700;SDS011;8724;51.272;6.554;2022-12-20T03:39:18;1.50;;;1.30;;
4700;SDS011;8724;51.272;6.554;2022-12-20T03:41:49;2.73;;;1.60;;
4700;SDS011;8724;51.272;6.554;2022-12-20T03:44:18;2.07;;;1.47;;
4700;SDS011;8724;51.272;6.554;2022-12-20T03:46:47;2.20;;;2.00;;
4700;SDS011;8724;51.272;6.554;2022-12-20T03:49:16;2.00;;;1.53;;
4700;SDS011;8724;51.272;6.554;2022-12-20T03:51:49;1.80;;;1.70;;
4700;SDS011;8724;51.272;6.554;2022-12-20T03:54:18;1.40;;;1.30;;
4700;SDS011;8724;51.272;6.554;2022-12-20T03:57:00;3.20;;;2.20;;
4700;SDS011;8724;51.272;6.554;2022-12-20T03:59:28;3.10;;;1.93;;
4700;SDS011;8724;51.272;6.554;2022-12-20T04:01:58;2.60;;;1.70;;
4700;SDS011;8724;51.272;6.554;2022-12-20T04:04:28;5.03;;;1.97;;
4700;SDS011;8724;51.272;6.554;2022-12-20T04:06:58;2.90;;;2.43;;
4700;SDS011;8724;51.272;6.554;2022-12-20T04:10:07;1.80;;;1.70;;
4700;SDS011;8724;51.272;6.554;2022-12-20T04:12:36;2.40;;;1.70;;
4700;SDS011;8724;51.272;6.554;2022-12-20T04:15:08;2.63;;;1.80;;
4700;SDS011;8724;51.272;6.554;2022-12-20T04:17:40;5.00;;;2.37;;
4700;SDS011;8724;51.272;6.554;2022-12-20T04:20:09;1.90;;;1.80;;
4700;SDS011;8724;51.272;6.554;2022-12-20T04:22:55;2.90;;;1.90;;
4700;SDS011;8724;51.272;6.554;2022-12-20T04:25:23;1.93;;;1.73;;
4700;SDS011;8724;51.272;6.554;2022-12-20T04:27:53;2.00;;;1.83;;
4700;SDS011;8724;51.272;6.554;2022-12-20T04:30:22;2.07;;;1.80;;
4700;SDS011;8724;51.272;6.554;2022-12-20T04:32:51;2.70;;;2.50;;
4700;SDS011;8724;51.272;6.554;2022-12-20T04:35:21;3.10;;;2.23;;
4700;SDS011;8724;51.272;6.554;2022-12-20T04:37:50;2.07;;;1.90;;
4700;SDS011;8724;51.272;6.554;2022-12-20T04:40:19;2.73;;;2.53;;
4700;SDS011;8724;51.272;6.554;2022-12-20T04:42:52;2.53;;;2.33;;
4700;SDS011;8724;51.272;6.554;2022-12-20T04:45:21;2.53;;;2.33;;
4700;SDS011;8724;51.272;6.554;2022-12-20T04:47:53;3.27;;;3.07;;
4700;SDS011;8724;51.272;6.554;2022-12-20T04:50:31;9.17;;;7.60;;
4700;SDS011;8724;51.272;6.554;2022-12-20T04:52:59;33.57;;;24.40;;
4700;SDS011;8724;51.272;6.554;2022-12-20T04:55:47;59.00;;;42.23;;
4700;SDS011;8724;51.272;6.554;2022-12-20T04:58:15;67.90;;;50.73;;
4700;SDS011;8724;51.272;6.554;2022-12-20T05:00:44;54.00;;;43.17;;
4700;SDS011;8724;51.272;6.554;2022-12-20T05:03:31;35.40;;;26.07;;
4700;SDS011;8724;51.272;6.554;2022-12-20T05:06:03;21.17;;;16.17;;
4700;SDS011;8724;51.272;6.554;2022-12-20T05:08:36;16.00;;;13.60;;
4700;SDS011;8724;51.272;6.554;2022-12-20T05:11:08;14.40;;;9.03;;
4700;SDS011;8724;51.272;6.554;2022-12-20T05:13:40;10.03;;;8.07;;
4700;SDS011;8724;51.272;6.554;2022-12-20T05:16:14;8.10;;;6.40;;
4700;SDS011;8724;51.272;6.554;2022-12-20T05:18:44;7.17;;;5.87;;
4700;SDS011;8724;51.272;6.554;2022-12-20T05:21:16;5.20;;;4.70;;
4700;SDS011;8724;51.272;6.554;2022-12-20T05:24:03;4.80;;;3.70;;
4700;SDS011;8724;51.272;6.554;2022-12-20T05:27:18;3.10;;;2.80;;
4700;SDS011;8724;51.272;6.554;2022-12-20T05:29:51;2.80;;;2.60;;
4700;SDS011;8724;51.272;6.554;2022-12-20T05:32:20;2.93;;;2.63;;
4700;SDS011;8724;51.272;6.554;2022-12-20T05:34:52;3.30;;;3.00;;
4700;SDS011;8724;51.272;6.554;2022-12-20T05:37:22;2.83;;;2.60;;
4700;SDS011;8724;51.272;6.554;2022-12-20T05:39:50;2.33;;;2.13;;
4700;SDS011;8724;51.272;6.554;2022-12-20T05:42:22;2.77;;;2.57;;
4700;SDS011;8724;51.272;6.554;2022-12-20T05:44:51;2.20;;;2.00;;
4700;SDS011;8724;51.272;6.554;2022-12-20T05:47:20;17.17;;;12.27;;
4700;SDS011;8724;51.272;6.554;2022-12-20T05:50:01;50.80;;;36.83;;
4700;SDS011;8724;51.272;6.554;2022-12-20T05:52:35;38.53;;;29.23;;
4700;SDS011;8724;51.272;6.554;2022-12-20T05:55:04;29.33;;;22.87;;
4700;SDS011;8724;51.272;6.554;2022-12-20T05:57:35;18.97;;;16.37;;
4700;SDS011;8724;51.272;6.554;2022-12-20T06:00:04;15.80;;;12.30;;
4700;SDS011;8724;51.272;6.554;2022-12-20T06:02:42;12.40;;;9.80;;
4700;SDS011;8724;51.272;6.554;2022-12-20T06:05:10;9.73;;;7.30;;
4700;SDS011;8724;51.272;6.554;2022-12-20T06:07:38;7.90;;;4.80;;
4700;SDS011;8724;51.272;6.554;2022-12-20T06:10:07;4.30;;;3.70;;
4700;SDS011;8724;51.272;6.554;2022-12-20T06:12:48;3.90;;;3.57;;
4700;SDS011;8724;51.272;6.554;2022-12-20T06:15:17;5.50;;;3.00;;
4700;SDS011;8724;51.272;6.554;2022-12-20T06:17:46;3.23;;;2.90;;
4700;SDS011;8724;51.272;6.554;2022-12-20T06:20:14;5.10;;;2.87;;
4700;SDS011;8724;51.272;6.554;2022-12-20T06:22:47;3.20;;;2.70;;
4700;SDS011;8724;51.272;6.554;2022-12-20T06:25:15;3.93;;;2.70;;
4700;SDS011;8724;51.272;6.554;2022-12-20T06:27:44;2.67;;;2.47;;
4700;SDS011;8724;51.272;6.554;2022-12-20T06:30:16;2.37;;;2.23;;
4700;SDS011;8724;51.272;6.554;2022-12-20T06:33:13;2.63;;;2.20;;
4700;SDS011;8724;51.272;6.554;2022-12-20T06:35:42;4.23;;;2.30;;
4700;SDS011;8724;51.272;6.554;2022-12-20T06:38:10;2.57;;;2.40;;
4700;SDS011;8724;51.272;6.554;2022-12-20T06:40:38;2.63;;;2.40;;
4700;SDS011;8724;51.272;6.554;2022-12-20T06:43:07;2.40;;;2.20;;
4700;SDS011;8724;51.272;6.554;2022-12-20T06:45:36;2.70;;;2.30;;
4700;SDS011;8724;51.272;6.554;2022-12-20T06:48:09;2.27;;;2.17;;
4700;SDS011;8724;51.272;6.554;2022-12-20T06:50:38;2.40;;;2.20;;
4700;SDS011;8724;51.272;6.554;2022-12-20T06:53:07;4.23;;;2.37;;
4700;SDS011;8724;51.272;6.554;2022-12-20T06:55:35;4.30;;;2.30;;
4700;SDS011;8724;51.272;6.554;2022-12-20T06:58:05;3.20;;;2.10;;
4700;SDS011;8724;51.272;6.554;2022-12-20T07:00:37;5.93;;;2.70;;
4700;SDS011;8724;51.272;6.554;2022-12-20T07:03:05;2.83;;;2.50;;
4700;SDS011;8724;51.272;6.554;2022-12-20T07:05:34;3.50;;;2.30;;
4700;SDS011;8724;51.272;6.554;2022-12-20T07:08:02;2.37;;;2.17;;
4700;SDS011;8724;51.272;6.554;2022-12-20T07:10:32;2.47;;;2.27;;
4700;SDS011;8724;51.272;6.554;2022-12-20T07:13:01;2.40;;;2.20;;
4700;SDS011;8724;51.272;6.554;2022-12-20T07:15:29;3.40;;;2.30;;
4700;SDS011;8724;51.272;6.554;2022-12-20T07:17:59;3.13;;;2.00;;
4700;SDS011;8724;51.272;6.554;2022-12-20T07:20:28;2.10;;;1.90;;
4700;SDS011;8724;51.272;6.554;2022-12-20T07:22:58;2.47;;;2.17;;
4700;SDS011;8724;51.272;6.554;2022-12-20T07:25:26;2.83;;;2.00;;
4700;SDS011;8724;51.272;6.554;2022-12-20T07:27:54;2.23;;;1.80;;
4700;SDS011;8724;51.272;6.554;2022-12-20T07:30:23;2.27;;;2.07;;
4700;SDS011;8724;51.272;6.554;2022-12-20T07:32:52;2.73;;;2.30;;
4700;SDS011;8724;51.272;6.554;2022-12-20T07:35:21;2.10;;;1.90;;
4700;SDS011;8724;51.272;6.554;2022-12-20T07:37:51;2.10;;;2.00;;
4700;SDS011;8724;51.272;6.554;2022-12-20T07:40:19;2.93;;;2.43;;
4700;SDS011;8724;51.272;6.554;2022-12-20T07:42:47;2.57;;;2.27;;
4700;SDS011;8724;51.272;6.554;2022-12-20T07:45:17;2.70;;;2.47;;
4700;SDS011;8724;51.272;6.554;2022-12-20T07:47:45;2.60;;;2.20;;
4700;SDS011;8724;51.272;6.554;2022-12-20T07:50:13;3.73;;;2.30;;
4700;SDS011;8724;51.272;6.554;2022-12-20T07:52:43;2.23;;;2.07;;
4700;SDS011;8724;51.272;6.554;2022-12-20T07:55:16;2.30;;;2.10;;
4700;SDS011;8724;51.272;6.554;2022-12-20T07:57:45;1.87;;;1.77;;
4700;SDS011;8724;51.272;6.554;2022-12-20T08:00:15;4.13;;;2.03;;
4700;SDS011;8724;51.272;6.554;2022-12-20T08:02:46;4.00;;;2.40;;
4700;SDS011;8724;51.272;6.554;2022-12-20T08:05:20;2.53;;;2.33;;
4700;SDS011;8724;51.272;6.554;2022-12-20T08:07:51;2.53;;;1.80;;
4700;SDS011;8724;51.272;6.554;2022-12-20T08:10:25;1.90;;;1.70;;
4700;SDS011;8724;51.272;6.554;2022-12-20T08:12:54;2.27;;;1.80;;
4700;SDS011;8724;51.272;6.554;2022-12-20T08:15:23;2.50;;;2.30;;
4700;SDS011;8724;51.272;6.554;2022-12-20T08:17:52;5.10;;;2.40;;
4700;SDS011;8724;51.272;6.554;2022-12-20T08:20:20;2.60;;;1.90;;
4700;SDS011;8724;51.272;6.554;2022-12-20T08:22:48;1.70;;;1.60;;
4700;SDS011;8724;51.272;6.554;2022-12-20T08:25:18;2.60;;;1.70;;
4700;SDS011;8724;51.272;6.554;2022-12-20T08:27:48;2.97;;;1.90;;
4700;SDS011;8724;51.272;6.554;2022-12-20T08:30:16;2.03;;;1.80;;
4700;SDS011;8724;51.272;6.554;2022-12-20T08:32:44;2.27;;;2.03;;
4700;SDS011;8724;51.272;6.554;2022-12-20T08:35:13;1.80;;;1.70;;
4700;SDS011;8724;51.272;6.554;2022-12-20T08:37:41;2.47;;;1.90;;
4700;SDS011;8724;51.272;6.554;2022-12-20T08:40:11;2.20;;;2.00;;
4700;SDS011;8724;51.272;6.554;2022-12-20T08:42:40;3.00;;;2.13;;
4700;SDS011;8724;51.272;6.554;2022-12-20T08:45:09;2.23;;;2.00;;
4700;SDS011;8724;51.272;6.554;2022-12-20T08:47:37;2.20;;;2.00;;
4700;SDS011;8724;51.272;6.554;2022-12-20T08:50:06;2.23;;;2.10;;
4700;SDS011;8724;51.272;6.554;2022-12-20T08:52:35;4.37;;;2.80;;
4700;SDS011;8724;51.272;6.554;2022-12-20T08:55:03;2.47;;;2.27;;
4700;SDS011;8724;51.272;6.554;2022-12-20T08:57:33;2.30;;;2.10;;
4700;SDS011;8724;51.272;6.554;2022-12-20T09:00:02;2.30;;;2.10;;
4700;SDS011;8724;51.272;6.554;2022-12-20T09:02:31;2.77;;;1.90;;
4700;SDS011;8724;51.272;6.554;2022-12-20T09:05:03;3.33;;;2.23;;
4700;SDS011;8724;51.272;6.554;2022-12-20T09:07:32;25.97;;;15.50;;
4700;SDS011;8724;51.272;6.554;2022-12-20T09:10:00;36.17;;;25.70;;
4700;SDS011;8724;51.272;6.554;2022-12-20T09:12:29;29.90;;;21.60;;
4700;SDS011;8724;51.272;6.554;2022-12-20T09:14:58;23.43;;;16.80;;
4700;SDS011;8724;51.272;6.554;2022-12-20T09:17:27;15.43;;;11.90;;
4700;SDS011;8724;51.272;6.554;2022-12-20T09:19:55;15.70;;;10.90;;
4700;SDS011;8724;51.272;6.554;2022-12-20T09:22:23;11.37;;;8.23;;
4700;SDS011;8724;51.272;6.554;2022-12-20T09:24:52;8.70;;;6.13;;
4700;SDS011;8724;51.272;6.554;2022-12-20T09:27:20;9.13;;;5.90;;
4700;SDS011;8724;51.272;6.554;2022-12-20T09:29:49;5.93;;;5.00;;
4700;SDS011;8724;51.272;6.554;2022-12-20T09:32:18;6.87;;;5.17;;
4700;SDS011;8724;51.272;6.554;2022-12-20T09:34:46;11.20;;;4.70;;
4700;SDS011;8724;51.272;6.554;2022-12-20T09:37:15;5.00;;;4.00;;
4700;SDS011;8724;51.272;6.554;2022-12-20T09:39:43;4.73;;;3.77;;
4700;SDS011;8724;51.272;6.554;2022-12-20T09:42:12;4.70;;;3.43;;
4700;SDS011;8724;51.272;6.554;2022-12-20T09:44:41;4.07;;;3.57;;
4700;SDS011;8724;51.272;6.554;2022-12-20T09:47:12;3.40;;;3.10;;
4700;SDS011;8724;51.272;6.554;2022-12-20T09:49:47;3.13;;;2.57;;
4700;SDS011;8724;51.272;6.554;2022-12-20T09:52:27;4.50;;;2.97;;
4700;SDS011;8724;51.272;6.554;2022-12-20T09:55:06;2.90;;;2.50;;
4700;SDS011;8724;51.272;6.554;2022-12-20T09:57:45;5.60;;;2.87;;
4700;SDS011;8724;51.272;6.554;2022-12-20T10:00:21;3.20;;;2.30;;
4700;SDS011;8724;51.272;6.554;2022-12-20T10:02:50;2.73;;;2.40;;
4700;SDS011;8724;51.272;6.554;2022-12-20T10:05:35;29.70;;;22.70;;
4700;SDS011;8724;51.272;6.554;2022-12-20T10:08:12;32.80;;;24.60;;
4700;SDS011;8724;51.272;6.554;2022-12-20T10:10:53;26.67;;;18.07;;
4700;SDS011;8724;51.272;6.554;2022-12-20T10:13:25;17.23;;;12.80;;
4700;SDS011;8724;51.272;6.554;2022-12-20T10:16:16;13.70;;;10.43;;
4700;SDS011;8724;51.272;6.554;2022-12-20T10:18:57;10.50;;;6.97;;
4700;SDS011;8724;51.272;6.554;2022-12-20T10:21:39;9.03;;;5.80;;
4700;SDS011;8724;51.272;6.554;2022-12-20T10:24:15;7.03;;;4.60;;
4700;SDS011;8724;51.272;6.554;2022-12-20T10:26:47;4.50;;;3.90;;
4700;SDS011;8724;51.272;6.554;2022-12-20T10:29:17;4.00;;;3.37;;
4700;SDS011;8724;51.272;6.554;2022-12-20T10:31:48;3.17;;;2.87;;
4700;SDS011;8724;51.272;6.554;2022-12-20T10:34:17;3.57;;;3.00;;
4700;SDS011;8724;51.272;6.554;2022-12-20T10:36:47;3.13;;;2.60;;
4700;SDS011;8724;51.272;6.554;2022-12-20T10:39:39;4.27;;;2.30;;
4700;SDS011;8724;51.272;6.554;2022-12-20T10:42:20;4.17;;;2.30;;
4700;SDS011;8724;51.272;6.554;2022-12-20T10:44:52;3.00;;;2.50;;
4700;SDS011;8724;51.272;6.554;2022-12-20T10:47:23;2.50;;;1.70;;
4700;SDS011;8724;51.272;6.554;2022-12-20T10:50:12;3.43;;;2.20;;
4700;SDS011;8724;51.272;6.554;2022-12-20T10:52:44;3.27;;;2.53;;
4700;SDS011;8724;51.272;6.554;2022-12-20T10:55:31;28.77;;;21.07;;
4700;SDS011;8724;51.272;6.554;2022-12-20T10:58:02;47.10;;;33.37;;
4700;SDS011;8724;51.272;6.554;2022-12-20T11:00:32;30.30;;;22.43;;
4700;SDS011;8724;51.272;6.554;2022-12-20T11:03:01;17.43;;;14.07;;
4700;SDS011;8724;51.272;6.554;2022-12-20T11:05:38;15.83;;;10.80;;
4700;SDS011;8724;51.272;6.554;2022-12-20T11:08:11;10.87;;;8.40;;
4700;SDS011;8724;51.272;6.554;2022-12-20T11:11:12;9.40;;;6.23;;
4700;SDS011;8724;51.272;6.554;2022-12-20T11:13:43;5.20;;;4.57;;
4700;SDS011;8724;51.272;6.554;2022-12-20T11:16:25;5.00;;;4.33;;
4700;SDS011;8724;51.272;6.554;2022-12-20T11:19:14;6.10;;;2.90;;
4700;SDS011;8724;51.272;6.554;2022-12-20T11:22:27;4.33;;;3.20;;
4700;SDS011;8724;51.272;6.554;2022-12-20T11:25:05;4.37;;;3.00;;
4700;SDS011;8724;51.272;6.554;2022-12-20T11:27:48;2.60;;;2.40;;
4700;SDS011;8724;51.272;6.554;2022-12-20T11:30:29;2.90;;;2.53;;
4700;SDS011;8724;51.272;6.554;2022-12-20T11:33:09;3.07;;;2.03;;
4700;SDS011;8724;51.272;6.554;2022-12-20T11:35:47;2.97;;;2.70;;
4700;SDS011;8724;51.272;6.554;2022-12-20T11:38:26;3.20;;;2.67;;
4700;SDS011;8724;51.272;6.554;2022-12-20T11:41:09;2.63;;;2.43;;
4700;SDS011;8724;51.272;6.554;2022-12-20T11:43:54;2.60;;;2.20;;
4700;SDS011;8724;51.272;6.554;2022-12-20T11:49:54;5.00;;;2.57;;
4700;SDS011;8724;51.272;6.554;2022-12-20T11:52:42;4.70;;;2.50;;
4700;SDS011;8724;51.272;6.554;2022-12-20T11:55:16;2.60;;;2.40;;
4700;SDS011;8724;51.272;6.554;2022-12-20T11:57:52;3.37;;;3.07;;
4700;SDS011;8724;51.272;6.554;2022-12-20T12:00:48;12.97;;;10.63;;
4700;SDS011;8724;51.272;6.554;2022-12-20T12:03:21;40.00;;;27.00;;
4700;SDS011;8724;51.272;6.554;2022-12-20T12:05:55;33.70;;;23.57;;
4700;SDS011;8724;51.272;6.554;2022-12-20T12:08:30;27.07;;;20.27;;
4700;SDS011;8724;51.272;6.554;2022-12-20T12:11:08;24.30;;;16.47;;
4700;SDS011;8724;51.272;6.554;2022-12-20T12:14:02;16.37;;;13.23;;
4700;SDS011;8724;51.272;6.554;2022-12-20T12:16:32;16.67;;;10.40;;
4700;SDS011;8724;51.272;6.554;2022-12-20T12:19:04;11.90;;;8.50;;
4700;SDS011;8724;51.272;6.554;2022-12-20T12:21:37;6.97;;;6.13;;
4700;SDS011;8724;51.272;6.554;2022-12-20T12:24:13;5.13;;;3.80;;
4700;SDS011;8724;51.272;6.554;2022-12-20T12:26:48;5.30;;;2.53;;
4700;SDS011;8724;51.272;6.554;2022-12-20T12:29:18;3.63;;;2.30;;
4700;SDS011;8724;51.272;6.554;2022-12-20T12:31:48;8.63;;;1.90;;
4700;SDS011;8724;51.272;6.554;2022-12-20T12:34:28;3.43;;;1.37;;
4700;SDS011;8724;51.272;6.554;2022-12-20T12:43:36;2.07;;;1.67;;
4700;SDS011;8724;51.272;6.554;2022-12-20T12:46:14;1.77;;;1.57;;
4700;SDS011;8724;51.272;6.554;2022-12-20T12:48:47;3.33;;;1.37;;
4700;SDS011;8724;51.272;6.554;2022-12-20T12:51:21;3.00;;;2.00;;
4700;SDS011;8724;51.272;6.554;2022-12-20T12:54:01;1.90;;;1.80;;
4700;SDS011;8724;51.272;6.554;2022-12-20T12:56:39;4.10;;;2.00;;
4700;SDS011;8724;51.272;6.554;2022-12-20T12:59:18;2.77;;;1.83;;
4700;SDS011;8724;51.272;6.554;2022-12-20T13:01:51;2.80;;;1.77;;
4700;SDS011;8724;51.272;6.554;2022-12-20T13:04:22;3.20;;;2.00;;
4700;SDS011;8724;51.272;6.554;2022-12-20T13:06:56;2.50;;;1.60;;
4700;SDS011;8724;51.272;6.554;2022-12-20T13:21:42;2.80;;;1.90;;
4700;SDS011;8724;51.272;6.554;2022-12-20T13:27:23;2.23;;;2.03;;
4700;SDS011;8724;51.272;6.554;2022-12-20T13:30:21;2.87;;;1.70;;
4700;SDS011;8724;51.272;6.554;2022-12-20T13:42:06;4.20;;;2.00;;
4700;SDS011;8724;51.272;6.554;2022-12-20T13:44:44;9.53;;;2.33;;
4700;SDS011;8724;51.272;6.554;2022-12-20T13:47:25;1.67;;;1.53;;
4700;SDS011;8724;51.272;6.554;2022-12-20T13:53:13;2.67;;;1.40;;
4700;SDS011;8724;51.272;6.554;2022-12-20T13:55:44;2.40;;;1.90;;
4700;SDS011;8724;51.272;6.554;2022-12-20T13:58:15;1.97;;;1.67;;
4700;SDS011;8724;51.272;6.554;2022-12-20T14:00:45;2.00;;;1.90;;
4700;SDS011;8724;51.272;6.554;2022-12-20T14:03:18;3.60;;;1.90;;
4700;SDS011;8724;51.272;6.554;2022-12-20T14:05:49;2.23;;;1.67;;
4700;SDS011;8724;51.272;6.554;2022-12-20T14:08:25;3.33;;;1.63;;
4700;SDS011;8724;51.272;6.554;2022-12-20T14:11:05;2.70;;;2.10;;
4700;SDS011;8724;51.272;6.554;2022-12-20T14:13:36;3.10;;;1.80;;
4700;SDS011;8724;51.272;6.554;2022-12-20T14:16:09;2.40;;;1.63;;
4700;SDS011;8724;51.272;6.554;2022-12-20T14:18:45;2.77;;;1.80;;
4700;SDS011;8724;51.272;6.554;2022-12-20T14:21:15;2.87;;;2.40;;
4700;SDS011;8724;51.272;6.554;2022-12-20T14:23:46;2.17;;;1.80;;
4700;SDS011;8724;51.272;6.554;2022-12-20T14:26:17;2.80;;;1.73;;
4700;SDS011;8724;51.272;6.554;2022-12-20T14:28:49;3.67;;;1.97;;
4700;SDS011;8724;51.272;6.554;2022-12-20T14:31:22;2.50;;;1.63;;
4700;SDS011;8724;51.272;6.554;2022-12-20T14:33:59;1.77;;;1.67;;
4700;SDS011;8724;51.272;6.554;2022-12-20T14:36:30;3.00;;;1.60;;
4700;SDS011;8724;51.272;6.554;2022-12-20T14:39:09;2.60;;;2.00;;
4700;SDS011;8724;51.272;6.554;2022-12-20T14:41:53;3.43;;;1.80;;
4700;SDS011;8724;51.272;6.554;2022-12-20T14:44:23;2.03;;;1.83;;
4700;SDS011;8724;51.272;6.554;2022-12-20T14:46:53;3.40;;;1.80;;
4700;SDS011;8724;51.272;6.554;2022-12-20T14:49:23;3.10;;;2.50;;
4700;SDS011;8724;51.272;6.554;2022-12-20T14:52:05;4.20;;;1.80;;
4700;SDS011;8724;51.272;6.554;2022-12-20T14:54:43;2.17;;;1.87;;
4700;SDS011;8724;51.272;6.554;2022-12-20T14:57:38;2.70;;;1.77;;
4700;SDS011;8724;51.272;6.554;2022-12-20T15:00:12;4.00;;;2.00;;
4700;SDS011;8724;51.272;6.554;2022-12-20T15:02:49;27.63;;;18.00;;
4700;SDS011;8724;51.272;6.554;2022-12-20T15:08:19;25.60;;;19.87;;
4700;SDS011;8724;51.272;6.554;2022-12-20T15:10:52;17.60;;;13.43;;
4700;SDS011;8724;51.272;6.554;2022-12-20T15:13:26;16.23;;;10.00;;
4700;SDS011;8724;51.272;6.554;2022-12-20T15:16:00;8.00;;;7.20;;
4700;SDS011;8724;51.272;6.554;2022-12-20T15:18:30;8.40;;;6.70;;
4700;SDS011;8724;51.272;6.554;2022-12-20T15:21:00;5.30;;;3.87;;
4700;SDS011;8724;51.272;6.554;2022-12-20T15:23:31;5.60;;;4.90;;
4700;SDS011;8724;51.272;6.554;2022-12-20T15:26:01;3.43;;;3.10;;
4700;SDS011;8724;51.272;6.554;2022-12-20T15:28:29;4.17;;;3.13;;
4700;SDS011;8724;51.272;6.554;2022-12-20T15:30:58;3.20;;;2.90;;
4700;SDS011;8724;51.272;6.554;2022-12-20T15:33:28;5.17;;;3.40;;
4700;SDS011;8724;51.272;6.554;2022-12-20T15:35:58;7.80;;;7.00;;
4700;SDS011;8724;51.272;6.554;2022-12-20T15:38:27;11.23;;;8.27;;
4700;SDS011;8724;51.272;6.554;2022-12-20T15:41:18;15.90;;;11.60;;
4700;SDS011;8724;51.272;6.554;2022-12-20T15:43:49;25.50;;;19.90;;
4700;SDS011;8724;51.272;6.554;2022-12-20T15:46:20;27.40;;;21.77;;
4700;SDS011;8724;51.272;6.554;2022-12-20T15:48:48;28.40;;;21.30;;
4700;SDS011;8724;51.272;6.554;2022-12-20T15:51:18;22.30;;;17.33;;
4700;SDS011;8724;51.272;6.554;2022-12-20T15:53:51;17.60;;;14.17;;
4700;SDS011;8724;51.272;6.554;2022-12-20T15:56:22;11.73;;;10.40;;
4700;SDS011;8724;51.272;6.554;2022-12-20T15:58:51;10.50;;;8.20;;
4700;SDS011;8724;51.272;6.554;2022-12-20T16:01:20;8.73;;;7.93;;
4700;SDS011;8724;51.272;6.554;2022-12-20T16:03:51;6.33;;;5.53;;
4700;SDS011;8724;51.272;6.554;2022-12-20T16:06:20;8.53;;;5.20;;
4700;SDS011;8724;51.272;6.554;2022-12-20T16:08:49;4.80;;;4.33;;
4700;SDS011;8724;51.272;6.554;2022-12-20T16:11:19;3.80;;;3.30;;
4700;SDS011;8724;51.272;6.554;2022-12-20T16:13:49;4.33;;;3.70;;
4700;SDS011;8724;51.272;6.554;2022-12-20T16:16:19;5.63;;;4.03;;
4700;SDS011;8724;51.272;6.554;2022-12-20T16:18:48;6.90;;;3.00;;
4700;SDS011;8724;51.272;6.554;2022-12-20T16:21:17;4.97;;;3.53;;
4700;SDS011;8724;51.272;6.554;2022-12-20T16:23:48;3.33;;;3.03;;
4700;SDS011;8724;51.272;6.554;2022-12-20T16:26:17;4.23;;;2.77;;
4700;SDS011;8724;51.272;6.554;2022-12-20T16:28:47;3.77;;;2.73;;